Huvudsida
METAR-TAF:

METAR-TAF

Flygplatser :

Belgaum Airport

Belgaum, Indien

latitud: 15-51-33N, longitud: 74-37-03E, höjd: 758 m

Aktuellt väderrapport

Denna rapport gjordes för 41 minuter sedan, klockan 05:00 UTC
Vind 2 kt från väst/sydväst
Temperatur 32°C
Fuktighet 56%
Tryck 1014 hPa
Sikt: 6000 m

METAR: VOBM 240500Z 25002KT 6000 NSC 32/22 Q1014

Tid: 11:11 (05:41 UTC)

Väderprognos

Denna rapport gjordes för 41 minuter sedan, klockan 05:00 UTC
Prognos gäller från 24 kl. 06 UTC till 24 kl. 15 UTC
Vind 5 kt från väst
Sikt: 6000 m
Spridda moln på en höjd av 1500 ft
Temporärt
från 24 kl. 09 UTC till 24 kl. 15 UTC
Spridda moln på en höjd av 1200 ft
Spridda moln på en höjd av 2000 ft
Få moln på en höjd av 2500 ft, Cumulonimbus.

TAF: VOBM 240500Z 2406/2415 27005KT 6000 SCT015 TEMPO 2409/2415 SCT012 SCT020 FEW025CB

Aktuella väderrapporter och prognoser från 4000 flygplatser (METAR- och TAF-rapporter).

De tillgängliga stationerna syns som gula och röda prickar på kartan.

För musen över prickarna för att se namnen på stationerna.

Klicka sedan för att få väderrapporter och prognoser.

För att ändra kartan: Klicka på de gröna knapparna med ett svart kors på för att zooma in; den gröna knappen med ett streck på för att zooma ut; eller på de gröna pilarna för angränsande kartor.


METAR-TAF: